Close

Questo sito utlizza cookie. Può leggere come li usiamo nella nostra Privacy Policy.

Ronchi Tower
Ronchi Tower

News

Posted by Fabio Davanzo - 26 Mar 2017
Views: 118

Come ogni anno, con l'arrivo dell'ora legale scatta l'orario estivo che per il Trieste Airport coincide con il primo volo del nuovo collegamento Ryanair con Roma Ciampino previsto verso le ore 21. 

In Homepage sono tornati i voli in real time e nella sezione Airport c'è l'elenco dei collegamenti previsti fino al 27 ottobre.

...

From Facebook

Real Time Flights

(Updated: 26 Jun - 10:39)    
Fonte: Triesteairport.it

Arrivals

Compagnia Volo Provenienza Previsto Note
Alitalia 01357 Roma FCO 10:25 Arrivato
Lufthansa 01934 Munich 12:25
Ryanair 05678 Roma CIA 12:45
Lufthansa 01936 Munich 16:00
Alitalia 01365 Roma FCO 16:10
Alitalia 01359 Roma FCO 18:00
Alitalia 01361 Roma FCO 19:55
Ryanair 00168 London STN 20:55
Ryanair 07264 Valencia 21:10
Alitalia 01353 Milano LIN 21:40

Departures

Compagnia Volo Destinazione Effettivo Note
Alitalia 01358 Roma FCO 11:10 Check-in aperto
Lufthansa 01935 Munich 13:05
Ryanair 05679 Roma CIA 13:10
Alitalia 01360 Roma FCO 14:40
Lufthansa 01937 Munich 16:40
Alitalia 01352 Milano LIN 18:55
Alitalia 01364 Roma FCO 19:00
Ryanair 00169 London STN 21:20
Ryanair 07265 Valencia 21:35
Lufthansa 01939 Munich 6:15

METAR & TAF

2017/06/26 08:20 LIPQ 260820Z VRB02KT CAVOK 27/19 Q1014
2017/06/26 06:25 TAF LIPQ 260500Z 2606/2706 VRB05KT 9999 SCT040
2017/06/26 08:20 LIPZ 260820Z 10005KT 040V140 CAVOK 25/19 Q1014 NOSIG
2017/06/26 06:21 TAF LIPZ 260500Z 2606/2712 VRB05KT 9999 SCT040 BECMG 2610/2612 16010KT BECMG 2617/2619 VRB05KT
2017/06/26 08:20 LIPH 260820Z VRB01KT CAVOK 26/19 Q1014
2017/06/26 06:21 TAF LIPH 260500Z 2606/2706 VRB05KT 9999 SCT040
2017/06/26 08:20 LIRF 260820Z VRB03KT CAVOK 29/19 Q1013 NOSIG
2017/06/26 06:21 TAF LIRF 260500Z 2606/2712 13006KT 9999 FEW030 BECMG 2610/2612 23012KT BECMG 2618/2620 VRB04KT BECMG 2702/2704 13010KT BECMG 2708/2710 19016KT
2017/06/26 08:20 LIML 260820Z 13004KT 090V180 9999 SCT025 26/17 Q1015 NOSIG
2017/06/26 06:21 TAF LIML 260500Z 2606/2706 10006KT 9999 SCT040 TEMPO 2618/2706 3000 TSRA BKN010CB
2017/06/26 08:20 EDDM 260820Z 27007KT 230V320 9999 FEW033 23/13 Q1015 NOSIG
2017/06/26 06:27 TAF EDDM 260500Z 2606/2712 25008KT 9999 FEW040 BECMG 2615/2617 04005KT TEMPO 2704/2709 25010KT SHRA SCT050TCU
2017/06/26 08:20 EGSS 260820Z AUTO VRB04KT 9999 NCD 16/07 Q1015
2017/06/26 06:15 TAF EGSS 260457Z 2606/2712 35005KT 9999 SCT048 BECMG 2618/2621 11010KT PROB30 TEMPO 2709/2712 9000 SHRA

FlightRadar24

Radar Meteo

Traffic data

Aprile 2017

Passeggeri: 64663+7,1% (rank: 24)
Nazionali 44072 +11,8% 22°
Internazionali 20330 -1,8% 26°

Movimenti: 1330+21,5% (rank: 23)
Tot commerciale 777 +12,8% 23°
Aviazione generale 553 +36,2%

Cargo (tons): 12,6n.d. (rank: 22)

Gennaio - Aprile 2017

Passeggeri: 222751+7,4% (rank: 24)
Nazionali 148481 +10,9% 22°
Internazionali 73526 +1,0% 23°

Movimenti: 5031+14,4% (rank: 19)
Tot commerciale 2801 +8,3% 22°
Aviazione generale 2230 +23,2%

Cargo (tons): 119,8-41,0% (rank: 19)

Photo

Eurocopter EC-145
Eurocopter EC-145
Distinct views: 12
Eurocopter EC-145
Eurocopter EC-145
Distinct views: 55
Eurocopter EC-145
Eurocopter EC-145
Distinct views: 166
Apron
Apron
Total views: 705